21  °C
Temperature
13  °C
  Dewpoint
   Humidity
Temp | Dewpoint | Humidity
14  km/h
Wind Speed
9  mph
Wind Speed
8  kts
Wind Speed
150°
South South
East

Wind Speed
Clear
Conditions
Pressure 1017.92 (hPa) - 30.06 (in)
Visibility 6.2 (mi) - 10.0 (km)

Current Conditions
EGTE
Location 6km (3.2mi)
Metar :EGTE 151750Z 15008KT CAVOK 21/13 Q1018
Tue 15th June 17:50 pm

Airport
  Metar Aviation API Data Provided by https://www.checkwx.com/ CSS/SVG/PHP scripts by weather34.com © 2015-2021